Time,TemperatureF,DewpointF,PressureIn,WindDirection,WindDirectionDegrees,WindSpeedMPH,WindSpeedGustMPH,Humidity,HourlyPrecipIn,Conditions,Clouds,dailyrainin,SolarRadiationWatts/m^2,SoftwareType,DateUTC
2013-12-20 00:03:00,18.0,13.0,30.47,South,182,0.0,6.0,80,0.00,,,0.00,0,weatherlink.com 1.10,2013-12-20 07:03:00,
2013-12-20 00:18:00,18.7,13.0,30.46,South,171,3.0,5.0,79,0.00,,,0.00,0,weatherlink.com 1.10,2013-12-20 07:18:00,
2013-12-20 00:33:00,19.3,13.0,30.46,South,181,2.0,5.0,77,0.00,,,0.00,0,weatherlink.com 1.10,2013-12-20 07:33:00,
2013-12-20 00:48:00,19.6,13.0,30.46,South,173,1.0,5.0,76,0.00,,,0.00,0,weatherlink.com 1.10,2013-12-20 07:48:00,
2013-12-20 01:03:00,19.9,13.0,30.45,South,178,2.0,4.0,74,0.00,,,0.00,0,weatherlink.com 1.10,2013-12-20 08:03:00,
2013-12-20 01:18:00,18.0,13.0,30.45,South,182,0.0,3.0,80,0.00,,,0.00,0,weatherlink.com 1.10,2013-12-20 08:18:00,
2013-12-20 01:33:00,19.2,13.0,30.45,South,184,3.0,6.0,77,0.00,,,0.00,0,weatherlink.com 1.10,2013-12-20 08:33:00,
2013-12-20 01:48:00,18.2,13.0,30.45,South,184,0.0,0.0,79,0.00,,,0.00,0,weatherlink.com 1.10,2013-12-20 08:48:00,
2013-12-20 02:03:00,17.6,13.0,30.45,ENE,77,0.0,0.0,81,0.00,,,0.00,0,weatherlink.com 1.10,2013-12-20 09:03:00,
2013-12-20 02:18:00,18.8,13.0,30.45,ENE,77,0.0,0.0,79,0.00,,,0.00,0,weatherlink.com 1.10,2013-12-20 09:18:00,
2013-12-20 02:33:00,18.7,13.0,30.45,ENE,74,0.0,0.0,77,0.00,,,0.00,0,weatherlink.com 1.10,2013-12-20 09:33:00,
2013-12-20 02:48:00,17.0,12.0,30.45,ENE,73,0.0,0.0,81,0.00,,,0.00,0,weatherlink.com 1.10,2013-12-20 09:48:00,
2013-12-20 03:03:00,18.1,13.0,30.44,ENE,73,0.0,0.0,80,0.00,,,0.00,0,weatherlink.com 1.10,2013-12-20 10:03:00,
2013-12-20 03:18:00,18.6,13.0,30.45,ENE,73,0.0,0.0,78,0.00,,,0.00,0,weatherlink.com 1.10,2013-12-20 10:18:00,
2013-12-20 03:33:00,17.5,12.0,30.44,ENE,73,0.0,0.0,80,0.00,,,0.00,0,weatherlink.com 1.10,2013-12-20 10:33:00,
2013-12-20 03:48:00,17.0,12.0,30.44,NNE,32,0.0,0.0,81,0.00,,,0.00,0,weatherlink.com 1.10,2013-12-20 10:48:00,
2013-12-20 04:03:00,16.6,12.0,30.44,ENE,62,4.0,5.0,82,0.00,,,0.00,0,weatherlink.com 1.10,2013-12-20 11:03:00,
2013-12-20 04:18:00,17.7,13.0,30.43,NE,43,2.0,5.0,81,0.00,,,0.00,0,weatherlink.com 1.10,2013-12-20 11:18:00,
2013-12-20 04:33:00,18.0,13.0,30.44,NE,37,0.0,3.0,80,0.00,,,0.00,0,weatherlink.com 1.10,2013-12-20 11:33:00,
2013-12-20 04:48:00,18.3,13.0,30.44,NE,37,0.0,0.0,79,0.00,,,0.00,0,weatherlink.com 1.10,2013-12-20 11:48:00,
2013-12-20 05:03:00,16.2,12.0,30.45,NNW,327,0.0,0.0,84,0.00,,,0.00,0,weatherlink.com 1.10,2013-12-20 12:03:00,
2013-12-20 05:19:00,16.6,13.0,30.44,NNE,29,3.0,4.0,84,0.00,,,0.00,0,weatherlink.com 1.10,2013-12-20 12:19:00,
2013-12-20 05:34:00,18.2,13.0,30.43,NNE,30,0.0,2.0,81,0.00,,,0.00,0,weatherlink.com 1.10,2013-12-20 12:34:00,
2013-12-20 05:49:00,16.4,12.0,30.44,North,355,4.0,5.0,83,0.00,,,0.00,0,weatherlink.com 1.10,2013-12-20 12:49:00,
2013-12-20 06:04:00,16.0,13.0,30.43,East,82,1.0,4.0,86,0.00,,,0.00,0,weatherlink.com 1.10,2013-12-20 13:04:00,
2013-12-20 06:19:00,17.7,13.0,30.43,SSW,207,1.0,5.0,82,0.00,,,0.00,0,weatherlink.com 1.10,2013-12-20 13:19:00,
2013-12-20 06:34:00,15.7,12.0,30.43,SW,223,3.0,7.0,86,0.00,,,0.00,0,weatherlink.com 1.10,2013-12-20 13:34:00,
2013-12-20 06:49:00,15.2,12.0,30.42,South,175,1.0,6.0,88,0.00,,,0.00,0,weatherlink.com 1.10,2013-12-20 13:49:00,
2013-12-20 07:04:00,16.6,13.0,30.42,South,180,2.0,2.0,87,0.00,,,0.00,0,weatherlink.com 1.10,2013-12-20 14:04:00,
2013-12-20 07:19:00,16.4,13.0,30.42,SSW,196,0.0,0.0,86,0.00,,,0.00,0,weatherlink.com 1.10,2013-12-20 14:19:00,
2013-12-20 07:34:00,15.7,13.0,30.42,SSW,200,0.0,0.0,88,0.00,,,0.00,0,weatherlink.com 1.10,2013-12-20 14:34:00,
2013-12-20 07:49:00,15.5,13.0,30.42,South,189,0.0,0.0,89,0.00,,,0.00,0,weatherlink.com 1.10,2013-12-20 14:49:00,
2013-12-20 08:04:00,16.1,13.0,30.42,SSE,167,0.0,4.0,87,0.00,,,0.00,0,weatherlink.com 1.10,2013-12-20 15:04:00,
2013-12-20 08:19:00,15.9,13.0,30.41,SSE,159,3.0,5.0,89,0.00,,,0.00,0,weatherlink.com 1.10,2013-12-20 15:19:00,
2013-12-20 08:34:00,15.2,13.0,30.41,SSW,205,1.0,3.0,89,0.00,,,0.00,9,weatherlink.com 1.10,2013-12-20 15:34:00,
2013-12-20 08:49:00,15.9,13.0,30.40,South,188,0.0,4.0,88,0.00,,,0.00,26,weatherlink.com 1.10,2013-12-20 15:49:00,
2013-12-20 09:04:00,16.3,13.0,30.41,SSW,210,3.0,5.0,87,0.00,,,0.00,44,weatherlink.com 1.10,2013-12-20 16:04:00,
2013-12-20 09:19:00,16.0,13.0,30.41,SSW,202,0.0,2.0,87,0.00,,,0.00,70,weatherlink.com 1.10,2013-12-20 16:19:00,
2013-12-20 09:34:00,16.7,14.0,30.42,South,183,0.0,2.0,87,0.00,,,0.00,67,weatherlink.com 1.10,2013-12-20 16:34:00,
2013-12-20 09:49:00,17.1,14.0,30.41,South,182,0.0,0.0,87,0.00,,,0.00,95,weatherlink.com 1.10,2013-12-20 16:49:00,
2013-12-20 10:04:00,18.6,15.0,30.40,South,182,0.0,0.0,85,0.00,,,0.00,111,weatherlink.com 1.10,2013-12-20 17:04:00,
2013-12-20 10:19:00,18.4,15.0,30.40,SW,223,3.0,6.0,86,0.00,,,0.00,132,weatherlink.com 1.10,2013-12-20 17:19:00,
2013-12-20 10:34:00,18.5,15.0,30.40,SW,223,0.0,0.0,87,0.00,,,0.00,146,weatherlink.com 1.10,2013-12-20 17:34:00,
2013-12-20 10:49:00,19.3,16.0,30.39,SW,223,0.0,0.0,87,0.00,,,0.00,149,weatherlink.com 1.10,2013-12-20 17:49:00,
2013-12-20 11:04:00,18.6,15.0,30.38,SW,223,0.0,2.0,85,0.00,,,0.00,162,weatherlink.com 1.10,2013-12-20 18:04:00,
2013-12-20 11:19:00,19.0,15.0,30.36,SW,219,2.0,4.0,85,0.00,,,0.00,176,weatherlink.com 1.10,2013-12-20 18:19:00,
2013-12-20 11:34:00,19.8,15.0,30.35,SW,219,0.0,0.0,83,0.00,,,0.00,213,weatherlink.com 1.10,2013-12-20 18:34:00,
2013-12-20 11:49:00,20.8,16.0,30.34,SW,219,0.0,0.0,80,0.00,,,0.00,171,weatherlink.com 1.10,2013-12-20 18:49:00,
2013-12-20 12:04:00,21.2,16.0,30.34,South,190,2.0,2.0,79,0.00,,,0.00,225,weatherlink.com 1.10,2013-12-20 19:04:00,
2013-12-20 12:20:00,22.2,16.0,30.32,South,190,0.0,0.0,78,0.00,,,0.00,190,weatherlink.com 1.10,2013-12-20 19:20:00,
2013-12-20 12:35:00,22.5,16.0,30.31,SW,223,0.0,2.0,77,0.00,,,0.00,162,weatherlink.com 1.10,2013-12-20 19:35:00,
2013-12-20 12:50:00,22.1,16.0,30.30,NNW,344,3.0,4.0,77,0.00,,,0.00,160,weatherlink.com 1.10,2013-12-20 19:50:00,
2013-12-20 13:05:00,22.4,17.0,30.28,North,351,2.0,4.0,78,0.00,,,0.00,169,weatherlink.com 1.10,2013-12-20 20:05:00,
2013-12-20 13:20:00,22.6,17.0,30.28,North,351,0.0,2.0,78,0.00,,,0.00,127,weatherlink.com 1.10,2013-12-20 20:20:00,
2013-12-20 13:35:00,22.9,17.0,30.27,North,351,0.0,0.0,77,0.00,,,0.00,93,weatherlink.com 1.10,2013-12-20 20:35:00,
2013-12-20 13:50:00,22.7,17.0,30.25,North,5,5.0,7.0,77,0.00,,,0.00,67,weatherlink.com 1.10,2013-12-20 20:50:00,
2013-12-20 14:05:00,22.3,18.0,30.24,North,355,9.0,10.0,83,0.00,,,0.00,74,weatherlink.com 1.10,2013-12-20 21:05:00,
2013-12-20 14:20:00,21.5,18.0,30.23,North,355,9.0,10.0,87,0.00,,,0.00,100,weatherlink.com 1.10,2013-12-20 21:20:00,
2013-12-20 14:35:00,21.3,19.0,30.22,North,355,9.0,11.0,90,0.00,,,0.00,69,weatherlink.com 1.10,2013-12-20 21:35:00,
2013-12-20 14:50:00,20.9,19.0,30.20,North,5,10.0,11.0,91,0.00,,,0.00,67,weatherlink.com 1.10,2013-12-20 21:50:00,
2013-12-20 15:05:00,20.7,19.0,30.19,North,355,9.0,11.0,91,0.00,,,0.00,42,weatherlink.com 1.10,2013-12-20 22:05:00,
2013-12-20 15:20:00,20.6,18.0,30.19,North,9,7.0,10.0,91,0.00,,,0.00,21,weatherlink.com 1.10,2013-12-20 22:20:00,
2013-12-20 15:35:00,20.7,19.0,30.18,NNE,18,6.0,9.0,92,0.00,,,0.00,32,weatherlink.com 1.10,2013-12-20 22:35:00,
2013-12-20 15:50:00,21.0,19.0,30.18,North,360,6.0,8.0,92,0.00,,,0.00,12,weatherlink.com 1.10,2013-12-20 22:50:00,
2013-12-20 16:05:00,20.9,19.0,30.17,North,350,5.0,6.0,92,0.00,,,0.00,18,weatherlink.com 1.10,2013-12-20 23:05:00,
2013-12-20 16:20:00,20.8,19.0,30.16,North,5,3.0,5.0,92,0.00,,,0.00,5,weatherlink.com 1.10,2013-12-20 23:20:00,
2013-12-20 16:35:00,21.2,19.0,30.16,NNE,31,3.0,4.0,92,0.00,,,0.00,0,weatherlink.com 1.10,2013-12-20 23:35:00,
2013-12-20 16:50:00,20.9,19.0,30.16,North,5,4.0,4.0,91,0.00,,,0.00,0,weatherlink.com 1.10,2013-12-20 23:50:00,
2013-12-20 17:05:00,20.7,19.0,30.15,North,360,3.0,5.0,92,0.00,,,0.00,0,weatherlink.com 1.10,2013-12-21 00:05:00,
2013-12-20 17:20:00,20.8,19.0,30.14,North,360,4.0,5.0,92,0.00,,,0.00,0,weatherlink.com 1.10,2013-12-21 00:20:00,
2013-12-20 17:35:00,20.8,19.0,30.14,NNW,348,4.0,8.0,92,0.00,,,0.00,0,weatherlink.com 1.10,2013-12-21 00:35:00,
2013-12-20 17:50:00,20.8,19.0,30.12,North,9,5.0,6.0,92,0.00,,,0.00,0,weatherlink.com 1.10,2013-12-21 00:50:00,
2013-12-20 18:05:00,20.9,19.0,30.11,NNE,21,5.0,7.0,92,0.00,,,0.00,0,weatherlink.com 1.10,2013-12-21 01:05:00,
2013-12-20 18:20:00,21.0,19.0,30.11,North,5,4.0,6.0,92,0.00,,,0.00,0,weatherlink.com 1.10,2013-12-21 01:20:00,
2013-12-20 18:35:00,20.9,19.0,30.10,NNE,22,5.0,7.0,92,0.00,,,0.00,0,weatherlink.com 1.10,2013-12-21 01:35:00,
2013-12-20 18:50:00,21.0,19.0,30.09,NNE,22,4.0,7.0,92,0.00,,,0.00,0,weatherlink.com 1.10,2013-12-21 01:50:00,
2013-12-20 19:05:00,21.2,19.0,30.09,North,5,4.0,6.0,92,0.00,,,0.00,0,weatherlink.com 1.10,2013-12-21 02:05:00,
2013-12-20 19:20:00,21.1,19.0,30.08,NNE,24,3.0,5.0,92,0.00,,,0.00,0,weatherlink.com 1.10,2013-12-21 02:20:00,
2013-12-20 19:35:00,21.2,19.0,30.08,NNE,13,5.0,7.0,92,0.00,,,0.00,0,weatherlink.com 1.10,2013-12-21 02:35:00,
2013-12-20 19:51:00,21.3,19.0,30.07,North,9,5.0,7.0,92,0.00,,,0.00,0,weatherlink.com 1.10,2013-12-21 02:51:00,
2013-12-20 20:06:00,21.4,20.0,30.06,NNE,19,4.0,5.0,92,0.00,,,0.00,0,weatherlink.com 1.10,2013-12-21 03:06:00,
2013-12-20 20:21:00,21.6,20.0,30.06,North,5,7.0,7.0,92,0.00,,,0.00,0,weatherlink.com 1.10,2013-12-21 03:21:00,
2013-12-20 20:36:00,21.5,20.0,30.06,NNE,22,7.0,8.0,92,0.00,,,0.00,0,weatherlink.com 1.10,2013-12-21 03:36:00,
2013-12-20 20:51:00,21.6,20.0,30.06,North,11,4.0,7.0,92,0.00,,,0.00,0,weatherlink.com 1.10,2013-12-21 03:51:00,
2013-12-20 21:06:00,21.6,20.0,30.06,NNE,22,6.0,7.0,92,0.00,,,0.00,0,weatherlink.com 1.10,2013-12-21 04:06:00,
2013-12-20 21:21:00,21.4,20.0,30.06,NNE,19,4.0,7.0,92,0.00,,,0.00,0,weatherlink.com 1.10,2013-12-21 04:21:00,
2013-12-20 21:36:00,21.0,19.0,30.06,North,10,5.0,5.0,92,0.00,,,0.00,0,weatherlink.com 1.10,2013-12-21 04:36:00,
2013-12-20 21:51:00,20.9,19.0,30.07,NNE,30,4.0,5.0,92,0.00,,,0.00,0,weatherlink.com 1.10,2013-12-21 04:51:00,
2013-12-20 22:06:00,21.3,19.0,30.07,NNE,14,6.0,7.0,92,0.00,,,0.00,0,weatherlink.com 1.10,2013-12-21 05:06:00,
2013-12-20 22:21:00,20.9,19.0,30.07,North,5,5.0,7.0,92,0.00,,,0.00,0,weatherlink.com 1.10,2013-12-21 05:21:00,
2013-12-20 22:36:00,20.8,19.0,30.08,North,360,6.0,7.0,92,0.00,,,0.00,0,weatherlink.com 1.10,2013-12-21 05:36:00,
2013-12-20 22:51:00,20.8,19.0,30.08,North,11,5.0,7.0,92,0.00,,,0.00,0,weatherlink.com 1.10,2013-12-21 05:51:00,
2013-12-20 23:06:00,20.8,19.0,30.08,North,5,5.0,6.0,92,0.00,,,0.00,0,weatherlink.com 1.10,2013-12-21 06:06:00,
2013-12-20 23:21:00,20.9,19.0,30.09,North,5,4.0,6.0,92,0.00,,,0.00,0,weatherlink.com 1.10,2013-12-21 06:21:00,
2013-12-20 23:36:00,21.0,19.0,30.09,NNW,348,6.0,7.0,92,0.00,,,0.00,0,weatherlink.com 1.10,2013-12-21 06:36:00,
2013-12-20 23:51:00,21.0,19.0,30.10,NNE,26,4.0,7.0,92,0.00,,,0.00,0,weatherlink.com 1.10,2013-12-21 06:51:00,